Time;durP1;ratioP1;P1;durP2;ratioP2;P2;SDS_P1;SDS_P2;PMS_P1;PMS_P2;Temp;Humidity;BMP_temperature;BMP_pressure;BME280_temperature;BME280_humidity;BME280_pressure;Samples;Min_cycle;Max_cycle;Signal;HPM_P1;HPM_P2
2023/06/09 00:02:06;;;;;;;18.27;17.33;;;18.00;99.90;;;;;;5103255;27;20500;-81
2023/06/09 00:04:36;;;;;;;19.20;18.20;;;18.00;99.90;;;;;;5106569;27;20449;-81
2023/06/09 00:07:05;;;;;;;17.80;16.90;;;18.00;99.90;;;;;;5105991;27;20468;-83
2023/06/09 00:09:33;;;;;;;18.17;17.30;;;18.00;99.90;;;;;;5104070;27;20436;-82
2023/06/09 00:12:02;;;;;;;18.93;18.03;;;18.00;99.90;;;;;;5103429;28;20468;-82
2023/06/09 00:14:30;;;;;;;18.90;18.00;;;18.00;99.90;;;;;;5102343;27;21017;-82
2023/06/09 00:16:59;;;;;;;18.80;17.80;;;17.90;99.90;;;;;;5105095;27;20488;-82
2023/06/09 00:19:29;;;;;;;18.60;17.60;;;17.90;99.90;;;;;;5103260;28;20473;-82
2023/06/09 00:21:59;;;;;;;19.60;18.50;;;17.90;99.90;;;;;;5104813;27;20446;-82
2023/06/09 00:24:27;;;;;;;18.73;17.80;;;17.90;99.90;;;;;;5101831;28;20448;-82
2023/06/09 00:26:56;;;;;;;18.43;17.43;;;17.90;99.90;;;;;;5104552;28;20477;-81
2023/06/09 00:29:24;;;;;;;19.27;18.27;;;17.80;99.90;;;;;;5103932;28;20512;-81
2023/06/09 00:31:52;;;;;;;18.00;17.20;;;17.90;99.90;;;;;;5103423;27;20480;-82
2023/06/09 00:34:20;;;;;;;18.17;17.17;;;17.90;99.90;;;;;;5104837;28;20444;-81
2023/06/09 00:36:48;;;;;;;18.43;17.60;;;17.80;99.90;;;;;;5102834;27;20469;-81
2023/06/09 00:39:18;;;;;;;18.37;17.47;;;17.80;99.90;;;;;;5101835;28;20893;-82
2023/06/09 00:41:46;;;;;;;18.60;17.67;;;17.80;99.90;;;;;;5101845;27;20456;-83
2023/06/09 00:44:14;;;;;;;18.50;17.60;;;17.80;99.90;;;;;;5102532;28;20450;-82
2023/06/09 00:46:42;;;;;;;18.43;17.60;;;17.70;99.90;;;;;;5102407;27;20551;-82
2023/06/09 00:49:10;;;;;;;18.33;17.33;;;17.60;99.90;;;;;;5099716;28;20434;-81
2023/06/09 00:51:40;;;;;;;17.33;16.53;;;17.60;99.90;;;;;;5098171;28;20452;-81
2023/06/09 00:54:08;;;;;;;17.87;17.00;;;17.60;99.90;;;;;;5098923;28;20934;-82
2023/06/09 00:56:39;;;;;;;17.97;17.17;;;17.60;99.90;;;;;;5094681;27;20483;-82
2023/06/09 00:59:09;;;;;;;17.80;16.90;;;17.50;99.90;;;;;;5095643;28;20555;-81
2023/06/09 01:01:37;;;;;;;18.23;17.37;;;17.50;99.90;;;;;;5094833;28;20868;-82
2023/06/09 01:04:05;;;;;;;18.60;17.70;;;17.40;99.90;;;;;;5096352;27;20480;-81
2023/06/09 01:06:40;;;;;;;18.03;17.10;;;17.40;99.90;;;;;;5097471;27;20844;-82
2023/06/09 01:09:19;;;;;;;17.37;16.50;;;17.40;99.90;;;;;;5097158;27;20445;-82
2023/06/09 01:11:59;;;;;;;17.20;16.50;;;17.40;99.90;;;;;;5094520;28;20458;-80
2023/06/09 01:14:32;;;;;;;17.47;16.67;;;17.30;99.90;;;;;;5097755;28;20453;-81
2023/06/09 01:17:07;;;;;;;18.17;17.27;;;17.40;99.90;;;;;;5095229;28;20477;-83
2023/06/09 01:19:40;;;;;;;17.80;17.00;;;17.30;99.90;;;;;;5093153;27;20482;-82
2023/06/09 01:22:18;;;;;;;17.53;16.67;;;17.30;99.90;;;;;;5097852;27;20450;-82
2023/06/09 01:24:59;;;;;;;17.63;16.83;;;17.30;99.90;;;;;;5098525;28;20461;-84
2023/06/09 01:27:30;;;;;;;17.90;17.00;;;17.30;99.90;;;;;;5095247;28;20541;-81
2023/06/09 01:30:00;;;;;;;18.00;17.20;;;17.30;99.90;;;;;;5096271;28;20452;-81
2023/06/09 01:32:28;;;;;;;18.33;17.43;;;17.20;99.90;;;;;;5097796;28;20461;-82
2023/06/09 01:34:57;;;;;;;17.47;16.77;;;17.20;99.90;;;;;;5098115;28;20454;-83
2023/06/09 01:37:26;;;;;;;18.30;17.50;;;17.20;99.90;;;;;;5095542;28;20453;-81
2023/06/09 01:39:54;;;;;;;18.00;17.10;;;17.10;99.90;;;;;;5097600;28;20530;-83
2023/06/09 01:42:22;;;;;;;17.90;17.10;;;17.10;99.90;;;;;;5097378;28;20448;-82
2023/06/09 01:44:51;;;;;;;18.20;17.40;;;17.20;99.90;;;;;;5096362;28;20457;-82
2023/06/09 01:47:20;;;;;;;18.40;17.57;;;17.20;99.90;;;;;;5096807;28;20449;-81
2023/06/09 01:49:55;;;;;;;18.30;17.30;;;17.10;99.90;;;;;;5097181;28;20451;-81
2023/06/09 01:52:31;;;;;;;18.73;17.83;;;17.00;99.90;;;;;;5101784;28;20436;-81
2023/06/09 01:55:03;;;;;;;19.97;18.87;;;17.10;99.90;;;;;;5101523;28;20960;-82
2023/06/09 01:57:36;;;;;;;18.10;17.30;;;17.00;99.90;;;;;;5104033;28;20551;-82
2023/06/09 02:00:08;;;;;;;19.17;18.17;;;17.00;1.00;;;;;;5101310;28;20510;-80
2023/06/09 02:02:39;;;;;;;19.10;18.17;;;17.00;99.90;;;;;;5101967;28;20442;-82
2023/06/09 02:05:09;;;;;;;18.77;17.77;;;16.90;99.90;;;;;;5101043;28;20504;-82
2023/06/09 02:07:39;;;;;;;18.80;17.90;;;16.80;1.00;;;;;;5100407;28;20481;-82
2023/06/09 02:10:09;;;;;;;18.50;17.60;;;16.90;1.00;;;;;;5099721;28;20461;-82
2023/06/09 02:12:38;;;;;;;20.43;19.33;;;17.00;1.00;;;;;;5101929;28;20467;-82
2023/06/09 02:15:08;;;;;;;18.50;17.70;;;17.00;1.00;;;;;;5105748;27;21013;-82
2023/06/09 02:17:39;;;;;;;18.07;17.37;;;17.00;99.90;;;;;;5105557;27;20459;-82
2023/06/09 02:20:09;;;;;;;19.43;18.30;;;16.90;99.90;;;;;;5104594;27;20484;-82
2023/06/09 02:22:37;;;;;;;19.17;18.17;;;16.90;99.90;;;;;;5105543;27;20456;-83
2023/06/09 02:25:07;;;;;;;19.60;18.60;;;16.80;1.00;;;;;;5103344;27;20453;-80
2023/06/09 02:27:35;;;;;;;19.20;18.03;;;16.80;99.90;;;;;;5104861;27;20453;-82
2023/06/09 02:30:04;;;;;;;19.73;18.67;;;16.80;99.90;;;;;;5105600;28;20465;-82
2023/06/09 02:32:34;;;;;;;19.93;18.83;;;16.80;99.90;;;;;;5101029;27;20497;-81
2023/06/09 02:35:03;;;;;;;19.63;18.70;;;16.70;1.00;;;;;;5104771;28;20467;-81
2023/06/09 02:37:31;;;;;;;20.70;19.30;;;16.70;1.00;;;;;;5102689;28;20453;-83
2023/06/09 02:40:00;;;;;;;19.23;18.33;;;16.80;1.00;;;;;;5103641;28;20532;-83
2023/06/09 02:42:28;;;;;;;18.90;18.00;;;16.70;99.90;;;;;;5100572;28;20440;-81
2023/06/09 02:44:56;;;;;;;19.00;18.20;;;16.70;99.90;;;;;;5106318;27;20451;-83
2023/06/09 02:47:24;;;;;;;19.13;18.23;;;16.60;1.00;;;;;;5099318;27;20461;-83
2023/06/09 02:49:53;;;;;;;21.57;20.17;;;16.60;1.00;;;;;;5102456;27;20465;-83
2023/06/09 02:52:21;;;;;;;19.73;18.73;;;16.70;1.00;;;;;;5098393;27;20481;-82
2023/06/09 02:54:49;;;;;;;19.40;18.40;;;16.60;1.00;;;;;;5099031;27;21203;-81
2023/06/09 02:57:18;;;;;;;19.13;18.23;;;16.50;1.00;;;;;;5107445;27;20471;-82
2023/06/09 02:59:46;;;;;;;19.40;18.60;;;16.50;1.00;;;;;;5098116;27;20594;-82
2023/06/09 03:02:15;;;;;;;20.10;19.00;;;16.60;1.00;;;;;;5099119;27;20981;-83
2023/06/09 03:04:43;;;;;;;19.57;18.57;;;16.60;1.00;;;;;;5103573;27;20445;-81
2023/06/09 03:07:14;;;;;;;19.63;18.73;;;16.60;99.90;;;;;;5097258;28;20525;-83
2023/06/09 03:09:42;;;;;;;19.33;18.33;;;16.60;99.90;;;;;;5096490;28;20457;-83
2023/06/09 03:12:11;;;;;;;18.80;17.90;;;16.50;1.00;;;;;;5102343;27;20451;-83
2023/06/09 03:14:39;;;;;;;19.00;18.10;;;16.50;1.00;;;;;;5094617;28;20562;-82
2023/06/09 03:17:08;;;;;;;19.07;18.17;;;16.50;1.00;;;;;;5099178;27;20468;-81
2023/06/09 03:19:36;;;;;;;19.40;18.40;;;16.40;1.00;;;;;;5095371;28;20448;-81
2023/06/09 03:22:05;;;;;;;19.07;17.87;;;16.30;1.00;;;;;;5100606;27;20454;-81
2023/06/09 03:24:35;;;;;;;19.30;18.50;;;16.40;1.00;;;;;;5099646;27;20450;-81
2023/06/09 03:27:03;;;;;;;18.80;17.70;;;16.40;1.00;;;;;;5094948;27;20486;-83
2023/06/09 03:29:31;;;;;;;18.33;17.53;;;16.30;1.00;;;;;;5095381;27;20876;-81
2023/06/09 03:31:59;;;;;;;19.20;18.17;;;16.40;1.00;;;;;;5104604;28;20452;-82
2023/06/09 03:34:29;;;;;;;18.87;17.97;;;16.40;1.00;;;;;;5095255;27;20532;-82
2023/06/09 03:36:57;;;;;;;19.67;18.57;;;16.40;1.00;;;;;;5099327;27;20468;-82
2023/06/09 03:39:25;;;;;;;18.57;17.50;;;16.40;1.00;;;;;;5099587;27;20447;-81
2023/06/09 03:41:56;;;;;;;19.40;18.30;;;16.40;1.00;;;;;;5096962;27;20471;-81
2023/06/09 03:44:24;;;;;;;19.30;18.30;;;16.30;1.00;;;;;;5099023;28;20466;-82
2023/06/09 03:46:52;;;;;;;19.40;18.40;;;16.20;1.00;;;;;;5096365;28;20486;-82
2023/06/09 03:49:20;;;;;;;19.40;18.40;;;16.20;1.00;;;;;;5097650;27;20552;-81
2023/06/09 03:51:48;;;;;;;17.90;17.00;;;16.20;1.00;;;;;;5099490;27;20794;-82
2023/06/09 03:54:16;;;;;;;18.53;17.60;;;16.20;1.00;;;;;;5094406;28;20461;-82
2023/06/09 03:56:44;;;;;;;18.27;17.37;;;16.20;1.00;;;;;;5100652;27;20477;-82
2023/06/09 03:59:14;;;;;;;18.83;17.93;;;16.30;1.00;;;;;;5096866;28;20809;-81
2023/06/09 04:01:43;;;;;;;19.03;18.03;;;16.20;1.00;;;;;;5096778;27;20495;-81
2023/06/09 04:04:12;;;;;;;19.33;18.30;;;16.20;1.00;;;;;;5096530;27;20452;-82
2023/06/09 04:06:45;;;;;;;19.23;18.27;;;16.20;1.00;;;;;;5103486;28;20486;-82
2023/06/09 04:09:16;;;;;;;19.00;18.00;;;16.30;1.00;;;;;;5096773;28;20450;-81
2023/06/09 04:11:44;;;;;;;18.87;17.97;;;16.30;1.00;;;;;;5094789;28;20451;-82
2023/06/09 04:14:14;;;;;;;19.87;18.87;;;16.30;1.00;;;;;;5095676;28;21008;-82
2023/06/09 04:16:43;;;;;;;19.57;18.50;;;16.20;1.00;;;;;;5094456;27;20496;-83
2023/06/09 04:19:11;;;;;;;19.10;18.00;;;16.20;1.00;;;;;;5097102;27;20467;-82
2023/06/09 04:21:39;;;;;;;18.87;17.97;;;16.30;1.00;;;;;;5099369;27;20508;-82
2023/06/09 04:24:08;;;;;;;18.87;17.97;;;16.30;1.00;;;;;;5094746;27;20448;-83
2023/06/09 04:26:37;;;;;;;19.30;18.20;;;16.40;1.00;;;;;;5097293;28;20464;-82
2023/06/09 04:29:09;;;;;;;20.57;19.47;;;16.40;1.00;;;;;;5097474;27;20438;-82
2023/06/09 04:31:42;;;;;;;19.77;18.73;;;16.40;1.00;;;;;;5094586;28;21073;-83
2023/06/09 04:34:12;;;;;;;20.50;19.40;;;16.40;1.00;;;;;;5096674;28;20501;-82
2023/06/09 04:36:41;;;;;;;20.40;19.40;;;16.40;1.00;;;;;;5094167;28;20894;-82
2023/06/09 04:39:12;;;;;;;20.30;19.20;;;16.40;1.00;;;;;;5094292;28;20452;-82
2023/06/09 04:41:40;;;;;;;20.00;19.00;;;16.50;1.00;;;;;;5100032;28;20472;-81
2023/06/09 04:44:09;;;;;;;19.97;18.90;;;16.50;1.00;;;;;;5097172;28;20530;-82
2023/06/09 04:46:38;;;;;;;19.43;18.53;;;16.50;1.00;;;;;;5096799;27;21252;-82
2023/06/09 04:49:09;;;;;;;19.73;18.80;;;16.50;1.00;;;;;;5096445;28;20530;-82
2023/06/09 04:51:41;;;;;;;21.00;19.90;;;16.60;1.00;;;;;;5096437;28;20588;-82
2023/06/09 04:54:10;;;;;;;21.70;20.50;;;16.60;1.00;;;;;;5098803;28;21147;-82
2023/06/09 04:56:39;;;;;;;20.80;19.70;;;16.70;1.00;;;;;;5096137;27;20939;-82
2023/06/09 04:59:07;;;;;;;21.30;20.20;;;16.80;1.00;;;;;;5099948;28;20463;-81
2023/06/09 05:01:35;;;;;;;21.03;19.80;;;16.80;1.00;;;;;;5094361;27;20846;-82
2023/06/09 05:04:03;;;;;;;20.53;19.40;;;16.80;1.00;;;;;;5091864;27;20465;-82
2023/06/09 05:06:33;;;;;;;19.80;18.70;;;16.80;1.00;;;;;;5097421;28;20475;-82
2023/06/09 05:09:01;;;;;;;20.33;19.30;;;16.90;1.00;;;;;;5095814;28;21351;-83
2023/06/09 05:11:29;;;;;;;20.63;19.43;;;16.90;1.00;;;;;;5095852;28;20461;-82
2023/06/09 05:13:57;;;;;;;20.83;19.80;;;17.00;1.00;;;;;;5096851;28;20460;-83
2023/06/09 05:16:27;;;;;;;21.30;20.20;;;17.10;1.00;;;;;;5097526;27;20477;-81
2023/06/09 05:18:56;;;;;;;22.63;21.47;;;17.10;1.00;;;;;;5096378;27;20453;-83
2023/06/09 05:21:25;;;;;;;22.27;20.97;;;17.20;1.00;;;;;;5093655;28;20485;-81
2023/06/09 05:23:55;;;;;;;21.53;20.43;;;17.20;1.00;;;;;;5099007;28;20452;-83
2023/06/09 05:26:23;;;;;;;21.33;19.90;;;17.20;1.00;;;;;;5095484;27;20934;-83
2023/06/09 05:28:51;;;;;;;21.23;20.03;;;17.20;1.00;;;;;;5094697;28;20541;-83
2023/06/09 05:31:19;;;;;;;21.60;20.50;;;17.20;1.00;;;;;;5095559;28;20480;-82
2023/06/09 05:33:48;;;;;;;21.90;20.53;;;17.20;1.00;;;;;;5092797;28;20452;-82
2023/06/09 05:36:16;;;;;;;25.07;23.57;;;17.30;1.00;;;;;;5096185;28;20469;-82
2023/06/09 05:38:44;;;;;;;23.07;21.77;;;17.40;1.00;;;;;;5097710;28;20457;-82
2023/06/09 05:41:14;;;;;;;21.93;20.83;;;17.50;1.00;;;;;;5095382;28;20756;-82
2023/06/09 05:43:42;;;;;;;22.63;21.43;;;17.50;1.00;;;;;;5097808;28;20974;-83
2023/06/09 05:46:11;;;;;;;21.40;20.00;;;17.50;1.00;;;;;;5096413;28;20554;-83
2023/06/09 05:48:39;;;;;;;19.47;18.57;;;17.60;1.00;;;;;;5098241;27;20506;-82
2023/06/09 05:51:07;;;;;;;20.83;19.53;;;17.70;1.00;;;;;;5101011;27;20552;-82
2023/06/09 05:53:35;;;;;;;19.67;18.80;;;17.80;1.00;;;;;;5101747;27;20455;-82
2023/06/09 05:56:06;;;;;;;20.07;19.10;;;17.80;1.00;;;;;;5101177;28;20468;-82
2023/06/09 05:58:35;;;;;;;20.20;19.30;;;17.90;1.00;;;;;;5097480;28;20453;-82
2023/06/09 06:01:04;;;;;;;19.00;17.80;;;18.00;1.00;;;;;;5097477;27;20484;-82
2023/06/09 06:03:33;;;;;;;18.23;17.50;;;18.10;1.00;;;;;;5096847;28;20921;-82
2023/06/09 06:06:01;;;;;;;19.20;18.30;;;18.10;1.00;;;;;;5099215;27;20519;-82
2023/06/09 06:08:30;;;;;;;19.13;18.27;;;18.20;99.90;;;;;;5101786;27;20459;-82
2023/06/09 06:10:58;;;;;;;17.70;16.90;;;18.20;1.00;;;;;;5099077;28;20452;-82
2023/06/09 06:13:26;;;;;;;19.27;18.37;;;18.20;1.00;;;;;;5098020;28;20456;-82
2023/06/09 06:15:58;;;;;;;19.23;18.10;;;18.30;99.90;;;;;;5096988;28;20480;-82
2023/06/09 06:18:26;;;;;;;19.07;18.17;;;18.30;99.90;;;;;;5098210;28;20481;-82
2023/06/09 06:20:54;;;;;;;19.00;18.10;;;18.30;99.90;;;;;;5097382;27;20463;-82
2023/06/09 06:23:22;;;;;;;19.30;18.37;;;18.40;99.90;;;;;;5098249;27;20480;-83
2023/06/09 06:25:50;;;;;;;17.90;17.10;;;18.40;99.90;;;;;;5098293;28;20492;-83
2023/06/09 06:28:21;;;;;;;18.90;17.90;;;18.40;99.90;;;;;;5102180;27;20450;-83
2023/06/09 06:30:49;;;;;;;18.43;17.63;;;18.50;99.90;;;;;;5100529;27;20468;-81
2023/06/09 06:33:19;;;;;;;18.33;17.53;;;18.60;99.90;;;;;;5099995;27;20472;-83
2023/06/09 06:35:48;;;;;;;17.60;16.90;;;18.60;99.90;;;;;;5097488;28;20500;-82
2023/06/09 06:38:16;;;;;;;18.20;17.40;;;18.60;99.90;;;;;;5097547;27;20510;-82
2023/06/09 06:40:44;;;;;;;18.53;17.60;;;18.70;99.90;;;;;;5096501;27;21020;-83
2023/06/09 06:43:12;;;;;;;18.27;17.27;;;18.70;99.90;;;;;;5098909;28;20865;-82
2023/06/09 06:45:41;;;;;;;19.13;17.60;;;18.80;99.90;;;;;;5099234;28;20466;-82
2023/06/09 06:48:09;;;;;;;17.27;16.47;;;18.90;99.90;;;;;;5098046;27;20495;-82
2023/06/09 06:50:40;;;;;;;17.50;16.70;;;18.90;99.90;;;;;;5096680;28;20544;-81
2023/06/09 06:53:08;;;;;;;16.43;15.80;;;18.90;99.90;;;;;;5099619;28;20442;-82
2023/06/09 06:55:37;;;;;;;17.70;16.80;;;19.00;99.90;;;;;;5099252;27;20977;-83
2023/06/09 06:58:05;;;;;;;16.70;16.00;;;19.10;99.90;;;;;;5094395;28;20467;-82
2023/06/09 07:00:35;;;;;;;16.43;15.83;;;19.10;99.90;;;;;;5093917;28;20470;-82
2023/06/09 07:03:03;;;;;;;16.63;15.93;;;19.20;99.90;;;;;;5097808;28;20477;-83
2023/06/09 07:05:32;;;;;;;17.10;16.50;;;19.30;99.90;;;;;;5098985;27;21017;-83
2023/06/09 07:08:01;;;;;;;16.83;16.10;;;19.30;99.90;;;;;;5096540;27;20488;-82
2023/06/09 07:10:31;;;;;;;16.17;15.57;;;19.30;99.90;;;;;;5095311;27;21199;-82
2023/06/09 07:12:59;;;;;;;16.60;15.90;;;19.40;99.90;;;;;;5098029;27;20444;-82
2023/06/09 07:15:27;;;;;;;16.50;15.80;;;19.50;99.90;;;;;;5095191;28;21070;-84
2023/06/09 07:17:55;;;;;;;16.80;16.10;;;19.50;99.90;;;;;;5096599;28;20444;-82
2023/06/09 07:20:24;;;;;;;16.43;15.73;;;19.60;99.90;;;;;;5103450;28;21038;-83
2023/06/09 07:22:53;;;;;;;16.77;16.03;;;19.70;99.90;;;;;;5096377;27;20523;-82
2023/06/09 07:25:22;;;;;;;17.47;16.57;;;19.80;99.90;;;;;;5097689;27;20473;-82
2023/06/09 07:27:50;;;;;;;16.47;15.67;;;19.80;99.90;;;;;;5098528;27;20445;-82
2023/06/09 07:30:19;;;;;;;17.50;16.37;;;19.80;99.90;;;;;;5096228;28;20510;-82
2023/06/09 07:32:47;;;;;;;17.90;16.47;;;19.80;99.90;;;;;;5095719;27;20448;-82
2023/06/09 07:35:16;;;;;;;17.13;16.23;;;19.90;99.90;;;;;;5097863;27;20453;-81
2023/06/09 07:37:45;;;;;;;16.60;16.00;;;20.00;99.90;;;;;;5098146;27;20441;-84
2023/06/09 07:40:13;;;;;;;17.13;16.53;;;20.10;99.90;;;;;;5097661;27;20461;-82
2023/06/09 07:42:49;;;;;;;17.10;16.40;;;20.20;99.90;;;;;;5096549;28;20915;-82
2023/06/09 07:45:18;;;;;;;16.33;15.73;;;20.20;99.90;;;;;;5097415;28;20469;-82
2023/06/09 07:47:46;;;;;;;17.13;16.53;;;20.30;99.90;;;;;;5097251;27;20453;-82
2023/06/09 07:50:15;;;;;;;17.73;16.83;;;20.40;99.90;;;;;;5096827;27;20462;-82
2023/06/09 07:52:43;;;;;;;16.83;16.23;;;20.50;99.90;;;;;;5095311;28;20441;-82
2023/06/09 07:55:11;;;;;;;17.63;16.93;;;20.60;99.90;;;;;;5094913;27;20459;-82
2023/06/09 07:57:43;;;;;;;17.63;16.93;;;20.60;99.90;;;;;;5096386;27;20554;-82
2023/06/09 08:00:15;;;;;;;17.30;16.63;;;20.60;99.90;;;;;;5095280;27;20551;-82
2023/06/09 08:02:44;;;;;;;17.63;16.67;;;20.70;99.90;;;;;;5100966;28;21083;-82
2023/06/09 08:05:12;;;;;;;17.50;16.80;;;20.70;99.90;;;;;;5097027;27;20481;-84
2023/06/09 08:07:40;;;;;;;17.37;16.77;;;20.70;99.90;;;;;;5094322;28;20468;-83
2023/06/09 08:10:09;;;;;;;16.60;16.00;;;20.80;99.90;;;;;;5095830;27;20531;-83
2023/06/09 08:12:38;;;;;;;16.97;16.37;;;20.90;99.90;;;;;;5096558;28;20469;-82
2023/06/09 08:15:07;;;;;;;17.67;16.93;;;21.00;99.90;;;;;;5096895;28;20475;-81
2023/06/09 08:17:37;;;;;;;17.43;16.80;;;21.00;99.90;;;;;;5095141;28;21001;-82
2023/06/09 08:20:07;;;;;;;17.43;16.67;;;21.10;99.90;;;;;;5097073;27;20448;-81
2023/06/09 08:22:35;;;;;;;17.33;16.73;;;21.10;99.90;;;;;;5096903;27;20551;-83
2023/06/09 08:25:04;;;;;;;17.60;17.00;;;21.10;99.90;;;;;;5095208;28;20861;-82
2023/06/09 08:27:33;;;;;;;17.50;16.70;;;21.10;99.90;;;;;;5098158;28;20469;-82
2023/06/09 08:30:01;;;;;;;16.70;16.10;;;21.10;99.90;;;;;;5096200;27;20453;-83
2023/06/09 08:32:29;;;;;;;16.00;15.50;;;21.20;99.90;;;;;;5099421;27;20975;-83
2023/06/09 08:35:07;;;;;;;17.33;16.63;;;21.30;99.90;;;;;;5096894;28;20471;-82
2023/06/09 08:37:36;;;;;;;17.33;16.63;;;21.40;99.90;;;;;;5095580;27;20465;-80
2023/06/09 08:40:08;;;;;;;17.40;16.80;;;21.50;99.90;;;;;;5097975;28;20461;-82
2023/06/09 08:42:38;;;;;;;16.63;16.03;;;21.50;99.90;;;;;;5095384;27;20460;-82
2023/06/09 08:45:07;;;;;;;17.00;16.40;;;21.60;99.90;;;;;;5094445;27;20996;-82
2023/06/09 08:47:38;;;;;;;17.20;16.57;;;21.60;99.90;;;;;;5096776;28;20459;-82
2023/06/09 08:50:10;;;;;;;17.10;16.40;;;21.60;99.90;;;;;;5099338;28;20464;-83
2023/06/09 08:52:39;;;;;;;17.23;16.63;;;21.60;99.90;;;;;;5098837;27;20993;-81
2023/06/09 08:55:09;;;;;;;17.50;16.80;;;21.60;99.90;;;;;;5096231;28;20978;-82
2023/06/09 08:57:38;;;;;;;16.40;15.90;;;21.70;99.90;;;;;;5097430;28;20462;-83
2023/06/09 09:00:11;;;;;;;17.53;16.93;;;21.80;99.90;;;;;;5094557;28;20449;-83
2023/06/09 09:02:41;;;;;;;17.50;16.90;;;21.80;99.90;;;;;;5095306;28;20551;-82
2023/06/09 09:05:11;;;;;;;17.30;16.80;;;21.90;99.90;;;;;;5094698;27;20532;-82
2023/06/09 09:07:40;;;;;;;17.87;17.27;;;22.00;99.90;;;;;;5099016;28;20448;-82
2023/06/09 09:10:08;;;;;;;18.07;17.33;;;22.10;99.90;;;;;;5099897;28;20994;-82
2023/06/09 09:12:51;;;;;;;18.80;18.00;;;22.10;99.90;;;;;;5098257;27;20449;-82
2023/06/09 09:15:19;;;;;;;17.50;16.80;;;22.10;99.90;;;;;;5103777;27;20855;-82
2023/06/09 09:17:48;;;;;;;17.37;16.77;;;22.10;99.90;;;;;;5096144;28;20468;-82
2023/06/09 09:20:19;;;;;;;18.10;17.40;;;22.10;99.90;;;;;;5096294;27;20478;-83
2023/06/09 09:22:48;;;;;;;17.93;17.23;;;22.10;99.90;;;;;;5095069;28;20460;-82
2023/06/09 09:25:25;;;;;;;18.20;17.50;;;22.20;99.90;;;;;;5096888;27;20510;-83
2023/06/09 09:28:01;;;;;;;18.30;17.50;;;22.20;99.90;;;;;;5094619;28;20957;-82
2023/06/09 09:30:45;;;;;;;18.60;17.60;;;22.30;99.90;;;;;;5096862;28;20961;-82
2023/06/09 09:33:16;;;;;;;17.83;17.23;;;22.50;99.90;;;;;;5095604;28;21033;-82
2023/06/09 09:35:48;;;;;;;17.77;17.17;;;22.40;99.90;;;;;;5097225;28;20512;-82
2023/06/09 09:38:18;;;;;;;18.33;17.63;;;22.50;99.90;;;;;;5096352;28;20446;-81
2023/06/09 09:40:49;;;;;;;18.13;17.53;;;22.60;99.90;;;;;;5095364;28;20451;-82
2023/06/09 09:43:18;;;;;;;17.83;17.10;;;22.60;99.90;;;;;;5096891;28;20489;-82
2023/06/09 09:45:50;;;;;;;17.40;16.80;;;22.60;99.90;;;;;;5096967;28;20474;-82
2023/06/09 09:48:21;;;;;;;18.10;17.47;;;22.60;99.90;;;;;;5095751;28;20927;-82
2023/06/09 09:50:53;;;;;;;19.00;18.10;;;22.60;99.90;;;;;;5095210;28;20797;-82
2023/06/09 09:53:23;;;;;;;18.23;17.63;;;22.60;99.90;;;;;;5102910;28;20541;-82
2023/06/09 09:55:53;;;;;;;17.33;16.73;;;22.70;99.90;;;;;;5089535;28;20472;-82
2023/06/09 09:58:29;;;;;;;17.40;16.90;;;22.80;99.90;;;;;;5091979;28;20482;-82
2023/06/09 10:01:00;;;;;;;17.73;17.13;;;22.80;99.90;;;;;;5094562;28;20662;-84
2023/06/09 10:03:29;;;;;;;17.97;17.10;;;22.90;99.90;;;;;;5095473;28;20468;-82
2023/06/09 10:06:03;;;;;;;16.40;15.90;;;22.90;99.90;;;;;;5093637;28;20477;-83
2023/06/09 10:08:32;;;;;;;16.97;16.37;;;23.00;99.90;;;;;;5092700;28;20467;-82
2023/06/09 10:11:02;;;;;;;17.07;16.50;;;23.00;99.90;;;;;;5096166;28;20445;-82
2023/06/09 10:13:30;;;;;;;17.00;16.50;;;23.10;99.90;;;;;;5092942;28;20442;-82
2023/06/09 10:15:59;;;;;;;17.07;16.47;;;23.10;99.90;;;;;;5096572;28;20481;-83
2023/06/09 10:18:28;;;;;;;17.20;16.60;;;23.10;99.90;;;;;;5098270;28;20457;-82
2023/06/09 10:20:57;;;;;;;17.30;16.70;;;23.10;99.90;;;;;;5100664;28;20461;-82
2023/06/09 10:23:28;;;;;;;16.60;16.10;;;23.10;99.90;;;;;;5096312;28;20805;-83
2023/06/09 10:25:57;;;;;;;17.50;16.80;;;23.20;99.90;;;;;;5097521;28;20475;-83
2023/06/09 10:28:25;;;;;;;16.70;16.10;;;23.20;99.90;;;;;;5095982;28;20526;-82
2023/06/09 10:30:55;;;;;;;16.50;16.00;;;23.20;99.90;;;;;;5102218;28;20505;-82
2023/06/09 10:33:28;;;;;;;16.03;15.53;;;23.30;99.90;;;;;;5094337;28;20449;-83
2023/06/09 10:35:58;;;;;;;16.57;16.07;;;23.30;99.90;;;;;;5099032;28;20477;-82
2023/06/09 10:38:30;;;;;;;16.43;15.93;;;23.40;99.90;;;;;;5098012;27;21034;-82
2023/06/09 10:41:12;;;;;;;17.93;17.07;;;23.50;99.90;;;;;;5097173;27;20464;-83
2023/06/09 10:44:10;;;;;;;16.60;16.00;;;23.40;99.90;;;;;;5098680;27;20453;-82
2023/06/09 10:46:42;;;;;;;15.90;15.40;;;23.40;99.90;;;;;;5097597;27;20542;-82
2023/06/09 10:49:43;;;;;;;16.57;16.00;;;23.40;99.90;;;;;;5098390;28;20685;-81
2023/06/09 10:52:46;;;;;;;15.87;15.37;;;23.30;99.90;;;;;;5100199;28;20448;-82
2023/06/09 10:55:16;;;;;;;15.80;15.20;;;23.50;99.90;;;;;;5095694;28;20945;-82
2023/06/09 10:57:45;;;;;;;16.10;15.60;;;23.60;99.90;;;;;;5098272;27;21068;-82
2023/06/09 11:00:14;;;;;;;15.70;15.20;;;23.70;99.90;;;;;;5098908;28;20982;-82
2023/06/09 11:02:45;;;;;;;16.00;15.50;;;23.70;99.90;;;;;;5097196;27;20460;-83
2023/06/09 11:05:14;;;;;;;16.50;16.07;;;23.80;99.90;;;;;;5097614;28;20541;-82
2023/06/09 11:07:53;;;;;;;15.87;15.37;;;23.80;99.90;;;;;;5097328;27;20484;-83
2023/06/09 11:10:32;;;;;;;16.73;16.13;;;23.90;99.90;;;;;;5101809;27;20828;-82
2023/06/09 11:13:03;;;;;;;16.77;16.23;;;23.90;99.90;;;;;;5097943;28;20465;-82
2023/06/09 11:16:02;;;;;;;16.70;16.10;;;23.90;99.90;;;;;;5099061;27;20564;-82
2023/06/09 11:18:32;;;;;;;16.50;15.90;;;23.90;99.90;;;;;;5096300;28;20958;-82
2023/06/09 11:21:20;;;;;;;17.00;16.50;;;24.00;99.90;;;;;;5096544;28;20437;-82
2023/06/09 11:24:03;;;;;;;16.60;16.10;;;24.00;99.90;;;;;;5098473;27;20526;-82
2023/06/09 11:26:36;;;;;;;17.60;16.80;;;24.00;99.90;;;;;;5097805;28;20838;-82
2023/06/09 11:29:19;;;;;;;16.80;16.20;;;24.00;99.90;;;;;;5095535;28;20441;-82
2023/06/09 11:31:51;;;;;;;16.07;15.57;;;24.00;99.90;;;;;;5098417;27;20468;-81
2023/06/09 11:34:55;;;;;;;16.33;15.73;;;24.20;99.90;;;;;;5102024;27;20445;-82
2023/06/09 11:37:25;;;;;;;16.50;16.00;;;24.20;99.90;;;;;;5099446;28;20488;-82
2023/06/09 11:39:53;;;;;;;16.70;16.20;;;24.20;99.90;;;;;;5098132;27;20458;-82
2023/06/09 11:42:23;;;;;;;17.30;16.50;;;24.30;99.90;;;;;;5100948;27;20444;-82
2023/06/09 11:44:53;;;;;;;17.27;16.67;;;24.30;99.90;;;;;;5099485;28;20476;-82
2023/06/09 11:47:28;;;;;;;18.70;18.00;;;24.30;99.90;;;;;;5095783;27;20473;-83
2023/06/09 11:50:05;;;;;;;16.53;15.97;;;24.30;99.90;;;;;;5100297;27;20460;-82
2023/06/09 11:52:35;;;;;;;16.50;15.90;;;24.30;99.90;;;;;;5095686;28;21216;-83
2023/06/09 11:55:05;;;;;;;16.00;15.50;;;24.40;99.90;;;;;;5099200;28;20452;-84
2023/06/09 11:57:35;;;;;;;16.40;15.90;;;24.40;99.90;;;;;;5098469;27;20500;-84
2023/06/09 12:00:12;;;;;;;15.70;15.20;;;24.50;99.90;;;;;;5095740;27;20514;-82
2023/06/09 12:02:41;;;;;;;15.93;15.27;;;24.50;99.90;;;;;;5099933;27;20509;-81
2023/06/09 12:05:11;;;;;;;15.30;14.80;;;24.50;99.90;;;;;;5098224;28;20539;-82
2023/06/09 12:07:42;;;;;;;15.27;14.77;;;24.50;99.90;;;;;;5093212;27;20450;-82
2023/06/09 12:10:12;;;;;;;15.00;14.50;;;24.50;99.90;;;;;;5103031;28;20497;-81
2023/06/09 12:12:45;;;;;;;15.73;15.23;;;24.50;99.90;;;;;;5098785;27;20525;-82
2023/06/09 12:15:16;;;;;;;15.70;15.07;;;24.40;99.90;;;;;;5097518;27;21294;-81
2023/06/09 12:17:46;;;;;;;14.40;14.00;;;24.50;99.90;;;;;;5098921;27;20533;-83
2023/06/09 12:20:27;;;;;;;14.97;14.43;;;24.50;99.90;;;;;;5096214;27;20811;-83
2023/06/09 12:22:57;;;;;;;14.80;14.30;;;24.40;99.90;;;;;;5111557;27;20469;-82
2023/06/09 12:25:28;;;;;;;15.27;14.80;;;24.30;99.90;;;;;;5095575;27;21091;-82
2023/06/09 12:28:11;;;;;;;15.40;14.90;;;24.40;99.90;;;;;;5100177;27;20451;-84
2023/06/09 12:30:42;;;;;;;14.50;14.10;;;24.40;99.90;;;;;;5097624;27;20915;-82
2023/06/09 12:33:12;;;;;;;16.57;15.87;;;24.60;99.90;;;;;;5099342;28;20465;-81
2023/06/09 12:35:42;;;;;;;14.90;14.40;;;24.70;99.90;;;;;;5095221;28;20466;-82
2023/06/09 12:38:14;;;;;;;14.63;14.17;;;24.70;99.90;;;;;;5096375;28;20438;-82
2023/06/09 12:40:49;;;;;;;15.03;14.40;;;24.70;99.90;;;;;;5097842;27;20460;-83
2023/06/09 12:43:19;;;;;;;14.80;14.30;;;24.70;99.90;;;;;;5099537;28;20446;-82
2023/06/09 12:45:48;;;;;;;14.63;14.13;;;24.70;99.90;;;;;;5099048;27;20484;-82
2023/06/09 12:48:16;;;;;;;14.87;14.47;;;24.70;99.90;;;;;;5097583;27;21005;-81